Time;durP1;ratioP1;P1;durP2;ratioP2;P2;SDS_P1;SDS_P2;PMS_P1;PMS_P2;Temp;Humidity;BMP_temperature;BMP_pressure;BME280_temperature;BME280_humidity;BME280_pressure;Samples;Min_cycle;Max_cycle;Signal;HPM_P1;HPM_P2
2021/12/20 00:00:29;;;;;;;7.17;5.63;;;;;22.20;101519.00;;;;2075792;28;20218;-53
2021/12/20 00:01:30;;;;;;;8.97;6.30;;;;;22.20;101529.00;;;;2076412;28;20220;-53
2021/12/20 00:02:30;;;;;;;6.70;4.73;;;;;22.20;101519.00;;;;2076754;28;20222;-53
2021/12/20 00:03:30;;;;;;;7.00;5.47;;;;;22.20;101524.00;;;;2077090;28;20264;-54
2021/12/20 00:04:31;;;;;;;5.93;5.33;;;;;22.20;101519.00;;;;2077003;28;20300;-54
2021/12/20 00:05:31;;;;;;;7.13;5.03;;;;;22.20;101514.00;;;;2077026;28;20217;-54
2021/12/20 00:06:31;;;;;;;6.17;4.60;;;;;22.20;101516.00;;;;2077103;28;20221;-54
2021/12/20 00:07:32;;;;;;;5.90;5.23;;;;;22.20;101516.00;;;;2076678;28;20214;-56
2021/12/20 00:08:32;;;;;;;6.80;4.97;;;;;22.20;101525.00;;;;2075695;28;20220;-56
2021/12/20 00:09:32;;;;;;;7.70;5.20;;;;;22.20;101523.00;;;;2075349;28;20312;-55
2021/12/20 00:10:33;;;;;;;5.83;4.23;;;;;22.20;101522.00;;;;2076188;28;20212;-54
2021/12/20 00:11:34;;;;;;;5.40;4.43;;;;;22.20;101512.00;;;;2076198;28;20213;-54
2021/12/20 00:12:34;;;;;;;7.30;4.63;;;;;22.20;101515.00;;;;2076297;28;20296;-54
2021/12/20 00:13:34;;;;;;;6.90;4.57;;;;;22.20;101521.00;;;;2076039;28;20205;-54
2021/12/20 00:14:34;;;;;;;6.13;4.20;;;;;22.20;101519.00;;;;2076753;28;20859;-54
2021/12/20 00:15:35;;;;;;;5.87;4.57;;;;;22.20;101520.00;;;;2076808;28;20237;-54
2021/12/20 00:16:35;;;;;;;6.80;4.80;;;;;22.20;101513.00;;;;2076976;28;20233;-54
2021/12/20 00:17:35;;;;;;;5.70;4.30;;;;;22.20;101504.00;;;;2076857;28;20232;-54
2021/12/20 00:18:36;;;;;;;8.53;5.40;;;;;22.20;101498.00;;;;2076745;28;20205;-54
2021/12/20 00:19:36;;;;;;;6.60;4.70;;;;;22.10;101494.00;;;;2076690;28;20256;-54
2021/12/20 00:20:36;;;;;;;5.80;4.40;;;;;22.10;101503.00;;;;2075579;28;20209;-53
2021/12/20 00:21:37;;;;;;;4.00;3.30;;;;;22.10;101494.00;;;;2076011;28;20275;-54
2021/12/20 00:22:39;;;;;;;8.57;4.10;;;;;22.10;101506.00;;;;2075661;28;20803;-54
2021/12/20 00:23:39;;;;;;;6.72;4.13;;;;;22.10;101497.00;;;;2076162;28;20213;-54
2021/12/20 00:24:40;;;;;;;5.23;3.73;;;;;22.10;101501.00;;;;2076239;28;20217;-53
2021/12/20 00:25:41;;;;;;;7.63;4.50;;;;;22.10;101503.00;;;;2076015;28;20202;-54
2021/12/20 00:26:42;;;;;;;6.65;4.03;;;;;22.10;101506.00;;;;2076852;28;20276;-54
2021/12/20 00:27:42;;;;;;;6.20;3.90;;;;;22.10;101501.00;;;;2076584;28;20268;-54
2021/12/20 00:28:42;;;;;;;3.93;3.37;;;;;22.10;101498.00;;;;2076738;28;20202;-54
2021/12/20 00:29:43;;;;;;;5.73;4.43;;;;;22.10;101504.00;;;;2076770;28;20263;-54
2021/12/20 00:30:43;;;;;;;6.20;3.97;;;;;22.10;101511.00;;;;2076564;28;20209;-54
2021/12/20 00:31:43;;;;;;;6.47;3.90;;;;;22.10;101511.00;;;;2076365;28;20214;-54
2021/12/20 00:32:44;;;;;;;3.87;3.27;;;;;22.10;101507.00;;;;2076144;28;20210;-53
2021/12/20 00:33:44;;;;;;;6.07;3.50;;;;;22.00;101497.00;;;;2076182;28;20213;-54
2021/12/20 00:34:45;;;;;;;8.33;3.50;;;;;22.00;101495.00;;;;2076213;28;20217;-54
2021/12/20 00:35:46;;;;;;;4.93;3.63;;;;;22.10;101496.00;;;;2076223;28;20221;-54
2021/12/20 00:36:56;;;;;;;4.22;3.03;;;;;22.00;101495.00;;;;2075932;28;20457;-54
2021/12/20 00:40:34;;;;;;;5.25;3.63;;;;;22.00;101495.00;;;;2075892;28;20559;-53
2021/12/20 00:41:34;;;;;;;5.73;3.20;;;;;22.00;101504.00;;;;2076232;28;20233;-54
2021/12/20 00:42:35;;;;;;;6.50;3.50;;;;;22.00;101496.00;;;;2075324;28;20217;-53
2021/12/20 00:43:35;;;;;;;3.83;3.23;;;;;22.00;101494.00;;;;2075453;28;20214;-53
2021/12/20 00:44:35;;;;;;;6.77;3.63;;;;;22.00;101502.00;;;;2076177;28;20313;-53
2021/12/20 00:45:36;;;;;;;3.93;2.60;;;;;22.00;101500.00;;;;2076060;28;20214;-54
2021/12/20 00:46:37;;;;;;;5.90;3.30;;;;;22.00;101494.00;;;;2076132;28;20221;-53
2021/12/20 00:47:37;;;;;;;6.27;3.40;;;;;22.00;101488.00;;;;2075403;28;20308;-54
2021/12/20 00:48:38;;;;;;;4.17;3.23;;;;;22.00;101488.00;;;;2074857;28;20251;-55
2021/12/20 00:49:38;;;;;;;5.17;3.13;;;;;22.00;101494.00;;;;2076047;28;20213;-55
2021/12/20 00:50:39;;;;;;;6.07;3.30;;;;;22.00;101494.00;;;;2075496;28;20214;-54
2021/12/20 00:51:39;;;;;;;4.33;2.90;;;;;22.00;101495.00;;;;2075646;28;20214;-54
2021/12/20 00:52:40;;;;;;;5.63;2.90;;;;;22.00;101489.00;;;;2076324;28;20460;-54
2021/12/20 00:53:40;;;;;;;6.47;2.90;;;;;22.00;101487.00;;;;2076544;28;20218;-53
2021/12/20 00:54:41;;;;;;;6.20;3.23;;;;;22.00;101492.00;;;;2076479;28;20208;-54
2021/12/20 00:55:41;;;;;;;4.73;2.87;;;;;22.00;101499.00;;;;2076561;28;20209;-53
2021/12/20 00:56:41;;;;;;;4.57;2.90;;;;;22.00;101495.00;;;;2076240;28;20351;-53
2021/12/20 00:57:43;;;;;;;5.70;2.57;;;;;22.00;101496.00;;;;2076304;28;20198;-54
2021/12/20 00:58:43;;;;;;;5.32;2.95;;;;;21.90;101494.00;;;;2075930;28;20736;-54
2021/12/20 00:59:43;;;;;;;5.47;2.90;;;;;21.90;101501.00;;;;2075980;28;20232;-53
2021/12/20 01:00:46;;;;;;;5.10;3.13;;;;;21.90;101501.00;;;;2075728;28;20245;-53
2021/12/20 01:01:46;;;;;;;6.38;2.90;;;;;22.00;101493.00;;;;2075977;28;20221;-54
2021/12/20 01:02:46;;;;;;;4.83;3.27;;;;;21.90;101490.00;;;;2075733;28;20210;-54
2021/12/20 01:03:47;;;;;;;5.33;3.00;;;;;21.90;101494.00;;;;2076573;28;20206;-53
2021/12/20 01:04:47;;;;;;;4.07;2.40;;;;;21.90;101497.00;;;;2076281;28;20686;-54
2021/12/20 01:05:47;;;;;;;5.60;3.17;;;;;21.90;101495.00;;;;2076561;28;20682;-53
2021/12/20 01:06:48;;;;;;;7.50;3.23;;;;;21.90;101497.00;;;;2076427;28;20221;-54
2021/12/20 01:07:48;;;;;;;5.43;2.97;;;;;21.90;101506.00;;;;2076517;28;20221;-54
2021/12/20 01:08:50;;;;;;;5.00;2.90;;;;;22.00;101509.00;;;;2076517;28;20205;-54
2021/12/20 01:09:53;;;;;;;6.30;3.10;;;;;21.90;101503.00;;;;2075724;28;20229;-54
2021/12/20 01:10:55;;;;;;;6.50;3.45;;;;;21.90;101499.00;;;;2075147;28;20214;-53
2021/12/20 01:12:02;;;;;;;4.40;2.70;;;;;21.90;101494.00;;;;2075670;28;20222;-54
2021/12/20 01:13:03;;;;;;;4.80;2.58;;;;;21.90;101497.00;;;;2075837;28;20237;-53
2021/12/20 01:14:03;;;;;;;4.47;2.40;;;;;21.90;101499.00;;;;2076206;28;20280;-53
2021/12/20 01:15:04;;;;;;;4.30;2.80;;;;;21.90;101499.00;;;;2076412;28;20460;-53
2021/12/20 01:16:06;;;;;;;5.67;2.77;;;;;21.90;101504.00;;;;2076260;28;20210;-53
2021/12/20 01:17:06;;;;;;;4.70;2.60;;;;;21.90;101478.00;;;;2076343;28;20220;-53
2021/12/20 01:18:07;;;;;;;6.43;2.77;;;;;21.90;101497.00;;;;2075578;28;20256;-53
2021/12/20 01:19:07;;;;;;;4.07;2.63;;;;;21.90;101494.00;;;;2075069;28;20654;-53
2021/12/20 01:20:08;;;;;;;4.17;2.47;;;;;21.90;101496.00;;;;2075795;28;20217;-53
2021/12/20 01:21:08;;;;;;;6.27;2.83;;;;;21.80;101498.00;;;;2075459;28;20237;-53
2021/12/20 01:22:09;;;;;;;4.30;2.43;;;;;21.80;101508.00;;;;2075574;28;21320;-53
2021/12/20 01:23:10;;;;;;;5.47;2.70;;;;;21.90;101503.00;;;;2075680;28;20220;-53
2021/12/20 01:24:10;;;;;;;5.50;2.50;;;;;21.90;101502.00;;;;2076011;28;20222;-54
2021/12/20 01:25:10;;;;;;;4.60;2.47;;;;;21.80;101502.00;;;;2076206;28;20980;-53
2021/12/20 01:26:11;;;;;;;4.43;2.57;;;;;21.80;101507.00;;;;2076379;28;20750;-53
2021/12/20 01:27:11;;;;;;;5.00;2.93;;;;;21.80;101504.00;;;;2075885;28;20232;-53
2021/12/20 01:28:11;;;;;;;6.87;2.90;;;;;21.80;101506.00;;;;2076389;28;20229;-53
2021/12/20 01:29:12;;;;;;;6.00;2.83;;;;;21.90;101508.00;;;;2076246;28;20248;-53
2021/12/20 01:30:14;;;;;;;5.20;2.40;;;;;21.90;101504.00;;;;2075986;28;20715;-53
2021/12/20 01:31:14;;;;;;;4.05;2.40;;;;;21.80;101507.00;;;;2071600;28;20300;-56
2021/12/20 01:32:14;;;;;;;7.07;2.90;;;;;21.80;101508.00;;;;2072591;28;20206;-54
2021/12/20 01:33:15;;;;;;;4.10;2.10;;;;;21.80;101502.00;;;;2077213;28;20209;-54
2021/12/20 01:34:15;;;;;;;6.03;2.63;;;;;21.80;101507.00;;;;2083174;28;20263;-54
2021/12/20 01:35:16;;;;;;;4.40;2.40;;;;;21.80;101510.00;;;;2075655;28;20293;-53
2021/12/20 01:36:16;;;;;;;4.90;2.43;;;;;21.80;101498.00;;;;2075719;28;20206;-54
2021/12/20 01:38:24;;;;;;;5.80;3.00;;;;;21.80;101509.00;;;;2076489;23;20311;-49
2021/12/20 01:39:24;;;;;;;6.30;2.43;;;;;21.80;101512.00;;;;2064323;28;20225;-49
2021/12/20 01:40:24;;;;;;;5.23;2.43;;;;;21.80;101510.00;;;;2063031;28;20209;-46
2021/12/20 01:41:25;;;;;;;4.97;2.40;;;;;21.80;101508.00;;;;2062105;28;20241;-48
2021/12/20 01:42:28;;;;;;;5.10;3.10;;;;;21.80;101514.00;;;;2062207;28;20221;-47
2021/12/20 01:43:28;;;;;;;4.90;2.65;;;;;21.80;101512.00;;;;2065743;23;20265;-48
2021/12/20 01:44:30;;;;;;;4.87;2.60;;;;;21.80;101510.00;;;;2054253;28;20207;-47
2021/12/20 01:45:30;;;;;;;4.65;2.38;;;;;21.70;101512.00;;;;2067714;28;20252;-45
2021/12/20 01:46:31;;;;;;;5.23;2.50;;;;;21.80;101514.00;;;;2069413;28;20222;-48
2021/12/20 01:47:36;;;;;;;4.83;2.40;;;;;21.70;101511.00;;;;2069568;28;20210;-48
2021/12/20 01:48:37;;;;;;;4.97;3.15;;;;;21.70;101502.00;;;;2070067;28;20213;-48
2021/12/20 01:49:51;;;;;;;4.55;2.90;;;;;21.70;101499.00;;;;2069489;28;20214;-47
2021/12/20 01:53:00;;;;;;;4.70;2.77;;;;;21.70;101481.00;;;;2070672;28;20210;-48
2021/12/20 01:54:01;;;;;;;3.47;2.50;;;;;21.70;101508.00;;;;2069741;28;20716;-48
2021/12/20 01:55:01;;;;;;;4.60;2.93;;;;;21.70;101505.00;;;;2069695;28;20594;-46
2021/12/20 01:56:01;;;;;;;4.87;2.50;;;;;21.70;101504.00;;;;2061963;28;20609;-47
2021/12/20 01:57:02;;;;;;;4.50;2.80;;;;;21.70;101507.00;;;;2061959;28;20313;-48
2021/12/20 01:58:02;;;;;;;5.60;2.93;;;;;21.70;101507.00;;;;2070593;28;20211;-48
2021/12/20 01:59:03;;;;;;;5.07;2.23;;;;;21.70;101511.00;;;;2070371;28;20210;-49
2021/12/20 02:00:05;;;;;;;4.90;2.47;;;;;21.70;101510.00;;;;2070446;28;20210;-48
2021/12/20 02:02:06;;;;;;;5.10;2.80;;;;;21.70;101512.00;;;;2070427;28;20218;-48
2021/12/20 02:03:08;;;;;;;4.80;2.53;;;;;21.70;101505.00;;;;2070459;28;20249;-49
2021/12/20 02:04:10;;;;;;;5.82;2.60;;;;;21.70;101503.00;;;;2070602;28;20312;-48
2021/12/20 02:05:19;;;;;;;4.57;2.45;;;;;21.70;101506.00;;;;2070421;28;20647;-47
2021/12/20 02:07:01;;;;;;;8.23;3.63;;;;;21.70;101505.00;;;;2070232;28;20733;-50
2021/12/20 02:07:51;;;;;;;5.40;2.90;;;;;21.70;101507.00;;;;2067111;28;20681;-48
2021/12/20 02:08:51;;;;;;;6.40;2.40;;;;;21.70;101498.00;;;;2065665;28;20214;-49
2021/12/20 02:09:52;;;;;;;5.60;3.27;;;;;21.70;101502.00;;;;2069822;28;20233;-47
2021/12/20 02:10:54;;;;;;;5.97;2.93;;;;;21.70;101504.00;;;;2069175;28;20214;-46
2021/12/20 02:11:54;;;;;;;8.07;3.20;;;;;21.70;101502.00;;;;2069935;28;20217;-48
2021/12/20 02:12:54;;;;;;;5.10;2.77;;;;;21.70;101499.00;;;;2070439;28;20699;-48
2021/12/20 02:13:55;;;;;;;4.40;2.90;;;;;21.70;101500.00;;;;2061430;28;20223;-48
2021/12/20 02:14:55;;;;;;;9.03;3.20;;;;;21.70;101498.00;;;;2061563;28;20219;-49
2021/12/20 02:15:56;;;;;;;4.70;2.47;;;;;21.70;101503.00;;;;2070033;28;20284;-48
2021/12/20 02:16:56;;;;;;;6.45;2.92;;;;;21.70;101505.00;;;;2070017;28;20214;-47
2021/12/20 02:17:57;;;;;;;6.67;3.07;;;;;21.60;101507.00;;;;2070341;28;20261;-48
2021/12/20 02:19:00;;;;;;;7.50;2.60;;;;;21.60;101497.00;;;;2070356;28;20218;-48
2021/12/20 02:20:01;;;;;;;5.80;3.03;;;;;21.70;101499.00;;;;2070260;28;20249;-46
2021/12/20 02:21:02;;;;;;;5.27;2.97;;;;;21.70;101505.00;;;;2069376;28;20210;-48
2021/12/20 02:22:03;;;;;;;7.60;2.90;;;;;21.70;101498.00;;;;2069425;28;20469;-49
2021/12/20 02:23:04;;;;;;;6.97;2.88;;;;;21.70;101498.00;;;;2061186;28;20215;-49
2021/12/20 02:24:04;;;;;;;5.83;2.77;;;;;21.70;101495.00;;;;2069207;28;20356;-48
2021/12/20 02:25:06;;;;;;;6.77;3.13;;;;;21.70;101499.00;;;;2069563;28;20341;-49
2021/12/20 02:26:06;;;;;;;6.72;3.15;;;;;21.70;101499.00;;;;2069822;28;20225;-49
2021/12/20 02:27:07;;;;;;;5.87;2.97;;;;;21.60;101505.00;;;;2069993;28;20595;-47
2021/12/20 02:28:14;;;;;;;5.70;2.90;;;;;21.60;101504.00;;;;2060311;28;20821;-47
2021/12/20 02:29:16;;;;;;;4.53;3.20;;;;;21.60;101499.00;;;;2054856;28;20274;-49
2021/12/20 02:38:11;;;;;;;5.93;3.20;;;;;21.60;101497.00;;;;2067913;28;20218;-48
2021/12/20 02:39:11;;;;;;;4.90;2.73;;;;;21.60;101503.00;;;;2070215;28;20694;-48
2021/12/20 02:40:11;;;;;;;5.50;2.83;;;;;21.60;101494.00;;;;2070238;28;20825;-46
2021/12/20 02:41:24;;;;;;;7.17;3.83;;;;;21.60;101493.00;;;;2069189;28;20220;-47
2021/12/20 02:42:30;;;;;;;5.45;2.90;;;;;21.50;101490.00;;;;2069436;28;20229;-48
2021/12/20 02:43:35;;;;;;;7.85;3.60;;;;;21.50;101492.00;;;;2061888;28;20230;-47
2021/12/20 02:44:35;;;;;;;4.18;2.70;;;;;21.60;101495.00;;;;2069561;28;20262;-49
2021/12/20 02:45:37;;;;;;;5.03;3.50;;;;;21.60;101487.00;;;;2069707;28;20230;-49
2021/12/20 02:47:41;;;;;;;7.03;3.45;;;;;21.60;101493.00;;;;2070178;28;20268;-48
2021/12/20 02:48:41;;;;;;;5.68;3.33;;;;;21.50;101493.00;;;;2070155;28;20616;-47
2021/12/20 02:49:43;;;;;;;5.20;3.03;;;;;21.50;101494.00;;;;2069915;28;20222;-46
2021/12/20 02:50:44;;;;;;;5.55;3.28;;;;;21.50;101494.00;;;;2069266;28;20312;-49
2021/12/20 02:51:45;;;;;;;4.50;2.70;;;;;21.60;101499.00;;;;2070336;28;20716;-46
2021/12/20 02:52:45;;;;;;;5.03;3.17;;;;;21.60;101494.00;;;;2069697;28;20276;-48
2021/12/20 02:53:45;;;;;;;5.40;3.10;;;;;21.50;101492.00;;;;2070190;28;20622;-48
2021/12/20 02:54:46;;;;;;;4.93;3.00;;;;;21.50;101491.00;;;;2070022;28;20214;-48
2021/12/20 02:55:46;;;;;;;4.83;3.03;;;;;21.60;101494.00;;;;2070070;28;20221;-49
2021/12/20 02:56:47;;;;;;;7.03;3.03;;;;;21.50;101490.00;;;;2069802;28;20218;-47
2021/12/20 02:57:47;;;;;;;5.97;3.10;;;;;21.50;101487.00;;;;2069733;28;20218;-48
2021/12/20 02:58:47;;;;;;;5.80;3.13;;;;;21.50;101491.00;;;;2069444;28;20752;-48
2021/12/20 02:59:48;;;;;;;8.27;3.50;;;;;21.50;101492.00;;;;2070358;28;20221;-49
2021/12/20 03:00:48;;;;;;;5.90;2.83;;;;;21.50;101491.00;;;;2069173;28;20215;-49
2021/12/20 03:01:57;;;;;;;5.50;2.70;;;;;21.50;101490.00;;;;2069242;28;20703;-49
2021/12/20 03:02:57;;;;;;;6.75;2.72;;;;;21.50;101483.00;;;;2070145;28;20708;-48
2021/12/20 03:03:58;;;;;;;5.80;3.10;;;;;21.50;101487.00;;;;2069310;28;21769;-53
2021/12/20 03:04:58;;;;;;;4.77;3.00;;;;;21.50;101492.00;;;;2070037;28;20218;-51
2021/12/20 03:05:59;;;;;;;5.37;2.80;;;;;21.50;101495.00;;;;2070216;28;20214;-51
2021/12/20 03:07:02;;;;;;;7.27;3.10;;;;;21.50;101497.00;;;;2070039;28;20630;-46
2021/12/20 03:08:04;;;;;;;6.45;2.80;;;;;21.50;101497.00;;;;2069991;28;20232;-48
2021/12/20 03:09:05;;;;;;;6.40;3.13;;;;;21.50;101492.00;;;;2061167;28;20645;-49
2021/12/20 03:10:05;;;;;;;6.25;3.05;;;;;21.50;101495.00;;;;2077400;28;20271;-46
2021/12/20 03:11:06;;;;;;;6.73;2.40;;;;;21.50;101504.00;;;;2075775;28;20685;-46
2021/12/20 03:12:07;;;;;;;4.27;2.60;;;;;21.50;101493.00;;;;2069513;28;20770;-48
2021/12/20 03:13:09;;;;;;;4.85;2.80;;;;;21.50;101493.00;;;;2069792;28;20714;-47
2021/12/20 03:14:20;;;;;;;6.10;2.67;;;;;21.50;101500.00;;;;2069935;28;20908;-47
2021/12/20 03:15:24;;;;;;;5.03;2.70;;;;;21.40;101485.00;;;;2070183;28;20241;-48
2021/12/20 03:16:24;;;;;;;6.07;2.80;;;;;21.50;101490.00;;;;2070146;28;20217;-48
2021/12/20 03:17:25;;;;;;;6.30;2.30;;;;;21.40;101494.00;;;;2069833;28;20214;-48
2021/12/20 03:18:25;;;;;;;5.67;2.77;;;;;21.40;101488.00;;;;2069789;28;20624;-48
2021/12/20 03:19:26;;;;;;;6.87;2.83;;;;;21.40;101492.00;;;;2067138;28;20644;-48
2021/12/20 03:20:27;;;;;;;5.63;2.65;;;;;21.40;101492.00;;;;2068508;28;20217;-48
2021/12/20 03:21:27;;;;;;;4.13;2.40;;;;;21.40;101492.00;;;;2069411;28;20214;-48
2021/12/20 03:22:27;;;;;;;6.73;2.80;;;;;21.40;101494.00;;;;2069865;28;20293;-49
2021/12/20 03:23:28;;;;;;;5.60;2.33;;;;;21.50;101492.00;;;;2069887;28;20207;-49
2021/12/20 03:24:28;;;;;;;5.73;2.87;;;;;21.50;101491.00;;;;2069730;28;20298;-47
2021/12/20 03:25:30;;;;;;;7.17;2.80;;;;;21.40;101486.00;;;;2069944;28;20222;-48
2021/12/20 03:26:31;;;;;;;4.32;2.28;;;;;21.40;101489.00;;;;2069207;28;20225;-48
2021/12/20 03:27:31;;;;;;;4.00;2.43;;;;;21.40;101484.00;;;;2069594;28;20340;-47
2021/12/20 03:28:31;;;;;;;5.53;2.30;;;;;21.40;101482.00;;;;2069096;28;20717;-54
2021/12/20 03:29:32;;;;;;;5.67;2.57;;;;;21.40;101483.00;;;;2070141;28;20784;-48
2021/12/20 03:30:32;;;;;;;7.10;2.73;;;;;21.40;101484.00;;;;2069294;28;20551;-48
2021/12/20 03:31:32;;;;;;;5.17;2.57;;;;;21.40;101477.00;;;;2069914;28;20629;-48
2021/12/20 03:32:32;;;;;;;6.73;2.60;;;;;21.40;101479.00;;;;2069121;28;20749;-47
2021/12/20 03:33:33;;;;;;;6.07;2.60;;;;;21.40;101489.00;;;;2068553;28;20612;-47
2021/12/20 03:34:33;;;;;;;4.17;2.93;;;;;21.40;101489.00;;;;2069806;28;20285;-48
2021/12/20 03:35:34;;;;;;;7.30;2.60;;;;;21.40;101488.00;;;;2070087;28;20641;-48
2021/12/20 03:36:34;;;;;;;7.93;2.87;;;;;21.40;101490.00;;;;2071865;28;20206;-48
2021/12/20 03:37:35;;;;;;;5.93;2.53;;;;;21.40;101453.00;;;;2071581;28;20210;-48
2021/12/20 03:38:35;;;;;;;5.30;2.60;;;;;21.40;101487.00;;;;2071669;28;20678;-47
2021/12/20 03:39:35;;;;;;;4.80;2.27;;;;;21.40;101495.00;;;;2071552;28;20652;-48
2021/12/20 03:40:37;;;;;;;7.03;2.70;;;;;21.40;101499.00;;;;2070600;28;20241;-48
2021/12/20 03:41:37;;;;;;;5.10;2.20;;;;;21.40;101494.00;;;;2071582;28;20210;-47
2021/12/20 03:42:42;;;;;;;6.93;2.50;;;;;21.40;101496.00;;;;2071322;28;20301;-46
2021/12/20 03:43:42;;;;;;;4.82;2.58;;;;;21.40;101493.00;;;;2071567;28;20222;-46
2021/12/20 03:44:44;;;;;;;4.00;2.10;;;;;21.40;101497.00;;;;2071384;28;20329;-46
2021/12/20 03:45:49;;;;;;;4.35;2.10;;;;;21.40;101496.00;;;;2071140;28;20581;-49
2021/12/20 03:46:49;;;;;;;5.10;2.20;;;;;21.40;101494.00;;;;2071248;28;20311;-46
2021/12/20 03:47:50;;;;;;;4.87;2.07;;;;;21.40;101487.00;;;;2071379;28;20305;-48
2021/12/20 03:48:50;;;;;;;5.70;2.43;;;;;21.40;101489.00;;;;2071403;28;20218;-48
2021/12/20 03:49:50;;;;;;;6.40;2.30;;;;;21.40;101494.00;;;;2071123;28;20233;-48
2021/12/20 03:50:51;;;;;;;3.63;2.03;;;;;21.40;101495.00;;;;2070277;28;20249;-48
2021/12/20 03:51:51;;;;;;;5.20;2.30;;;;;21.40;101494.00;;;;2071100;28;20214;-48
2021/12/20 03:52:51;;;;;;;5.20;2.40;;;;;21.30;101494.00;;;;2070420;28;20331;-47
2021/12/20 03:53:52;;;;;;;6.77;2.53;;;;;21.30;101497.00;;;;2071352;28;20218;-47
2021/12/20 03:54:52;;;;;;;5.70;2.53;;;;;21.30;101494.00;;;;2071282;28;20237;-48
2021/12/20 03:55:52;;;;;;;5.43;2.20;;;;;21.30;101494.00;;;;2071094;28;21048;-48
2021/12/20 03:56:53;;;;;;;4.60;2.53;;;;;21.40;101493.00;;;;2071525;28;20689;-48
2021/12/20 03:57:53;;;;;;;5.03;2.40;;;;;21.40;101493.00;;;;2071243;28;20218;-48
2021/12/20 03:58:53;;;;;;;6.13;2.20;;;;;21.30;101488.00;;;;2071167;28;20267;-49
2021/12/20 03:59:54;;;;;;;4.13;2.30;;;;;21.30;101494.00;;;;2071047;28;20271;-47
2021/12/20 04:00:55;;;;;;;4.43;2.30;;;;;21.30;101489.00;;;;2070227;28;20225;-48
2021/12/20 04:01:56;;;;;;;6.85;2.50;;;;;21.30;101497.00;;;;2071019;28;20214;-48
2021/12/20 04:02:57;;;;;;;4.80;2.05;;;;;21.30;101490.00;;;;2071029;28;20547;-48
2021/12/20 04:04:00;;;;;;;3.90;2.00;;;;;21.30;101492.00;;;;2071039;28;20225;-47
2021/12/20 04:05:00;;;;;;;4.93;2.50;;;;;21.40;101498.00;;;;2069664;28;20297;-48
2021/12/20 04:06:05;;;;;;;5.00;2.37;;;;;21.30;101495.00;;;;2071544;28;20780;-48
2021/12/20 04:07:06;;;;;;;4.65;2.25;;;;;21.30;101499.00;;;;2070921;28;20249;-47
2021/12/20 04:08:06;;;;;;;4.83;2.30;;;;;21.30;101496.00;;;;2071054;28;20210;-48
2021/12/20 04:09:07;;;;;;;5.93;2.03;;;;;21.30;101497.00;;;;2070843;28;20223;-47
2021/12/20 04:10:07;;;;;;;6.30;2.23;;;;;21.30;101504.00;;;;2070898;28;20246;-48
2021/12/20 04:11:08;;;;;;;3.83;2.27;;;;;21.30;101503.00;;;;2070230;28;20214;-51
2021/12/20 04:12:09;;;;;;;5.87;2.67;;;;;21.30;101496.00;;;;2071236;28;20452;-50
2021/12/20 04:13:09;;;;;;;6.60;2.00;;;;;21.30;101504.00;;;;2070977;28;20275;-48
2021/12/20 04:14:10;;;;;;;4.43;2.40;;;;;21.30;101491.00;;;;2070379;28;20679;-47
2021/12/20 04:15:10;;;;;;;7.00;2.40;;;;;21.30;101499.00;;;;2070595;28;20594;-49
2021/12/20 04:16:10;;;;;;;5.23;2.23;;;;;21.30;101487.00;;;;2071222;28;20293;-48
2021/12/20 04:17:11;;;;;;;4.40;2.10;;;;;21.30;101492.00;;;;2070835;28;20206;-47
2021/12/20 04:18:11;;;;;;;6.00;2.40;;;;;21.30;101489.00;;;;2071119;28;20280;-47
2021/12/20 04:19:11;;;;;;;4.43;2.40;;;;;21.30;101495.00;;;;2071148;28;20289;-47
2021/12/20 04:20:12;;;;;;;4.60;2.27;;;;;21.30;101496.00;;;;2070891;28;20478;-47
2021/12/20 04:21:13;;;;;;;7.33;2.50;;;;;21.30;101492.00;;;;2070378;28;20245;-48
2021/12/20 04:22:15;;;;;;;5.55;2.90;;;;;21.30;101484.00;;;;2070979;28;20308;-47
2021/12/20 04:23:16;;;;;;;3.78;1.92;;;;;21.30;101497.00;;;;2071073;28;20259;-47
2021/12/20 04:24:16;;;;;;;4.40;2.13;;;;;21.30;101497.00;;;;2071080;28;20214;-47
2021/12/20 04:25:16;;;;;;;6.13;2.50;;;;;21.30;101499.00;;;;2071128;28;20217;-49
2021/12/20 04:26:17;;;;;;;5.30;2.13;;;;;21.30;101493.00;;;;2071178;28;20222;-48
2021/12/20 04:27:17;;;;;;;3.80;1.90;;;;;21.30;101523.00;;;;2070909;28;20225;-49
2021/12/20 04:28:17;;;;;;;4.60;2.10;;;;;21.30;101511.00;;;;2071227;28;20238;-47
2021/12/20 04:29:19;;;;;;;4.63;2.53;;;;;21.20;101494.00;;;;2071190;28;20737;-47
2021/12/20 04:30:20;;;;;;;6.80;2.47;;;;;21.20;101503.00;;;;2070681;28;20214;-53
2021/12/20 04:31:20;;;;;;;4.60;2.10;;;;;21.20;101505.00;;;;2070463;28;20229;-46
2021/12/20 04:32:20;;;;;;;5.67;2.30;;;;;21.20;101494.00;;;;2070796;28;20210;-48
2021/12/20 04:33:21;;;;;;;6.47;2.20;;;;;21.20;101502.00;;;;2070781;28;20702;-48
2021/12/20 04:34:21;;;;;;;4.50;2.30;;;;;21.20;101495.00;;;;2071017;28;20210;-47
2021/12/20 04:35:21;;;;;;;5.93;2.57;;;;;21.20;101505.00;;;;2071010;28;20214;-47
2021/12/20 04:36:22;;;;;;;7.47;3.20;;;;;21.20;101503.00;;;;2070818;28;20217;-48
2021/12/20 04:37:22;;;;;;;7.57;2.47;;;;;21.20;101499.00;;;;2069938;28;20210;-47
2021/12/20 04:38:25;;;;;;;5.00;2.23;;;;;21.30;101501.00;;;;2070468;28;20297;-48
2021/12/20 04:39:29;;;;;;;8.18;2.65;;;;;21.20;101503.00;;;;2071068;28;20670;-48
2021/12/20 04:40:30;;;;;;;6.63;2.40;;;;;21.20;101491.00;;;;2070064;28;20669;-48
2021/12/20 04:41:30;;;;;;;4.53;2.27;;;;;21.20;101501.00;;;;2071035;28;20214;-47
2021/12/20 04:42:30;;;;;;;5.50;1.97;;;;;21.20;101502.00;;;;2070708;28;20292;-47
2021/12/20 04:43:31;;;;;;;6.10;1.90;;;;;21.20;101498.00;;;;2070559;28;20214;-48
2021/12/20 04:44:31;;;;;;;8.27;2.73;;;;;21.20;101497.00;;;;2070853;28;20213;-48
2021/12/20 04:45:32;;;;;;;4.50;2.20;;;;;21.20;101493.00;;;;2070586;28;20293;-48
2021/12/20 04:46:32;;;;;;;7.63;2.60;;;;;21.20;101495.00;;;;2067394;28;20222;-47
2021/12/20 04:47:32;;;;;;;4.93;2.23;;;;;21.20;101501.00;;;;2069828;28;20252;-48
2021/12/20 04:48:32;;;;;;;7.07;2.70;;;;;21.20;101496.00;;;;2070094;28;20222;-46
2021/12/20 04:49:33;;;;;;;6.10;2.20;;;;;21.20;101496.00;;;;2070950;28;20248;-47
2021/12/20 04:50:33;;;;;;;5.50;2.43;;;;;21.20;101504.00;;;;2069850;28;20218;-47
2021/12/20 04:51:33;;;;;;;6.43;3.27;;;;;21.20;101504.00;;;;2070840;28;20214;-48
2021/12/20 04:52:34;;;;;;;6.20;2.60;;;;;21.20;101500.00;;;;2070831;28;20291;-47
2021/12/20 04:53:34;;;;;;;4.00;2.20;;;;;21.20;101506.00;;;;2070768;28;20214;-47
2021/12/20 04:54:34;;;;;;;5.83;2.47;;;;;21.20;101508.00;;;;2070842;28;20214;-48
2021/12/20 04:55:35;;;;;;;4.87;2.50;;;;;21.20;101513.00;;;;2070641;28;20215;-49
2021/12/20 04:56:35;;;;;;;5.87;2.30;;;;;21.20;101511.00;;;;2070550;28;20214;-47
2021/12/20 04:57:36;;;;;;;6.43;2.80;;;;;21.10;101500.00;;;;2070597;28;20226;-48
2021/12/20 04:58:36;;;;;;;5.00;2.13;;;;;21.20;101494.00;;;;2070320;28;20218;-48
2021/12/20 04:59:36;;;;;;;4.93;2.17;;;;;21.10;101505.00;;;;2069801;28;20298;-48
2021/12/20 05:00:37;;;;;;;4.17;2.00;;;;;21.20;101514.00;;;;2068346;28;20277;-48
2021/12/20 05:01:37;;;;;;;6.87;2.17;;;;;21.20;101506.00;;;;2070213;28;20269;-49
2021/12/20 05:02:37;;;;;;;4.70;2.23;;;;;21.10;101503.00;;;;2070089;28;20582;-46
2021/12/20 05:03:38;;;;;;;6.00;2.60;;;;;21.10;101504.00;;;;2069979;28;20218;-48
2021/12/20 05:04:38;;;;;;;5.63;2.30;;;;;21.10;101501.00;;;;2070165;28;20356;-47
2021/12/20 05:05:38;;;;;;;5.27;2.50;;;;;21.20;101508.00;;;;2070400;28;20225;-49
2021/12/20 05:06:39;;;;;;;9.53;3.00;;;;;21.10;101505.00;;;;2070146;28;20211;-48
2021/12/20 05:07:39;;;;;;;6.10;2.20;;;;;21.10;101506.00;;;;2070332;28;20218;-49
2021/12/20 05:08:48;;;;;;;5.87;2.33;;;;;21.10;101503.00;;;;2068134;28;20218;-46
2021/12/20 05:09:49;;;;;;;6.72;2.10;;;;;21.10;101502.00;;;;2069354;28;20227;-48
2021/12/20 05:10:49;;;;;;;4.50;2.50;;;;;21.10;101510.00;;;;2068965;28;20214;-48
2021/12/20 05:11:57;;;;;;;4.23;2.40;;;;;21.20;101514.00;;;;2070549;28;20457;-46
2021/12/20 05:13:00;;;;;;;4.60;2.13;;;;;21.10;101506.00;;;;2067897;28;20221;-47
2021/12/20 05:14:01;;;;;;;4.63;1.88;;;;;21.10;101507.00;;;;2070549;28;20749;-46
2021/12/20 05:15:01;;;;;;;7.15;2.60;;;;;21.10;101498.00;;;;2070250;28;20210;-48
2021/12/20 05:16:01;;;;;;;5.83;2.60;;;;;21.10;101507.00;;;;2070087;28;20280;-48
2021/12/20 05:17:02;;;;;;;6.50;2.33;;;;;21.10;101505.00;;;;2069766;28;20226;-48
2021/12/20 05:18:03;;;;;;;4.87;2.30;;;;;21.10;101504.00;;;;2070447;28;20233;-47